createdAt,value
2018-11-22T00:00:00.786Z,100545.55
2018-11-22T00:02:27.621Z,100548.23
2018-11-22T00:04:54.458Z,100554.25
2018-11-22T00:07:21.296Z,100553.36
2018-11-22T00:09:48.131Z,100556.83
2018-11-22T00:12:14.968Z,100555.45
2018-11-22T00:14:41.888Z,100558.05
2018-11-22T00:17:08.780Z,100555.20
2018-11-22T00:19:35.615Z,100553.64
2018-11-22T00:22:02.443Z,100552.63
2018-11-22T00:24:29.272Z,100559.42
2018-11-22T00:26:56.112Z,100561.26
2018-11-22T00:29:22.951Z,100552.97
2018-11-22T00:31:49.788Z,100560.10
2018-11-22T00:34:16.620Z,100551.57
2018-11-22T00:36:43.456Z,100553.34
2018-11-22T00:39:11.251Z,100558.02
2018-11-22T00:41:38.091Z,100556.30
2018-11-22T00:44:04.964Z,100559.95
2018-11-22T00:46:31.803Z,100554.05
2018-11-22T00:48:58.649Z,100561.33
2018-11-22T00:51:25.484Z,100561.41
2018-11-22T00:53:52.308Z,100571.70
2018-11-22T00:56:19.148Z,100571.88
2018-11-22T00:58:45.988Z,100578.84
2018-11-22T01:01:12.843Z,100575.55
2018-11-22T01:03:39.680Z,100581.42
2018-11-22T01:06:06.515Z,100581.42
2018-11-22T01:08:33.356Z,100587.11
2018-11-22T01:11:00.191Z,100589.59
2018-11-22T01:13:27.027Z,100581.79
2018-11-22T01:15:53.860Z,100589.87
2018-11-22T01:18:20.702Z,100592.25
2018-11-22T01:20:47.536Z,100588.70
2018-11-22T01:23:14.383Z,100589.68
2018-11-22T01:25:41.216Z,100591.39
2018-11-22T01:28:08.048Z,100592.28
2018-11-22T01:30:34.876Z,100601.46
2018-11-22T01:33:01.735Z,100597.23
2018-11-22T01:35:28.557Z,100590.17
2018-11-22T01:37:55.385Z,100597.36
2018-11-22T01:40:23.207Z,100593.03
2018-11-22T01:42:50.043Z,100595.58
2018-11-22T01:45:19.360Z,100593.44
2018-11-22T01:47:46.188Z,100592.44
2018-11-22T01:50:14.166Z,100582.34
2018-11-22T01:52:41.312Z,100585.37
2018-11-22T01:55:09.908Z,100581.39
2018-11-22T01:57:36.812Z,100585.67
2018-11-22T02:00:05.780Z,100587.02
2018-11-22T02:02:32.608Z,100588.22
2018-11-22T02:04:59.449Z,100580.56
2018-11-22T02:07:26.299Z,100583.72
2018-11-22T02:09:53.124Z,100573.04
2018-11-22T02:12:19.979Z,100576.25
2018-11-22T02:14:46.819Z,100573.53
2018-11-22T02:17:13.657Z,100579.00
2018-11-22T02:19:40.522Z,100571.48
2018-11-22T02:22:07.356Z,100571.88
2018-11-22T02:24:34.211Z,100565.34
2018-11-22T02:27:01.051Z,100567.75
2018-11-22T02:29:27.892Z,100565.09
2018-11-22T02:31:54.734Z,100570.02
2018-11-22T02:34:21.564Z,100569.83
2018-11-22T02:36:48.409Z,100565.24
2018-11-22T02:39:15.256Z,100570.38
2018-11-22T02:41:42.101Z,100565.84
2018-11-22T02:44:08.940Z,100568.11
2018-11-22T02:46:35.780Z,100565.73
2018-11-22T02:49:02.716Z,100568.75
2018-11-22T02:51:29.557Z,100569.33
2018-11-22T02:53:56.399Z,100571.69
2018-11-22T02:56:23.248Z,100561.80
2018-11-22T02:58:50.083Z,100563.18
2018-11-22T03:01:16.924Z,100562.34
2018-11-22T03:03:43.757Z,100563.62
2018-11-22T03:06:10.596Z,100568.41
2018-11-22T03:08:37.426Z,100565.88
2018-11-22T03:11:04.987Z,100563.80
2018-11-22T03:13:31.823Z,100571.54
2018-11-22T03:15:58.668Z,100571.44
2018-11-22T03:18:25.497Z,100568.80
2018-11-22T03:20:52.340Z,100568.69
2018-11-22T03:23:19.184Z,100572.89
2018-11-22T03:25:46.016Z,100563.06
2018-11-22T03:28:12.856Z,100568.96
2018-11-22T03:30:39.692Z,100569.33
2018-11-22T03:33:06.535Z,100569.13
2018-11-22T03:35:33.373Z,100568.89
2018-11-22T03:38:00.233Z,100571.91
2018-11-22T03:40:27.232Z,100571.63
2018-11-22T03:42:54.157Z,100570.70
2018-11-22T03:45:21.492Z,100566.02
2018-11-22T03:47:48.332Z,100560.13
2018-11-22T03:50:17.128Z,100563.25
2018-11-22T03:52:44.700Z,100575.20
2018-11-22T03:55:12.784Z,100570.70
2018-11-22T03:57:39.897Z,100572.45
2018-11-22T04:00:08.748Z,100570.80
2018-11-22T04:02:35.580Z,100574.33
2018-11-22T04:05:02.446Z,100561.63
2018-11-22T04:07:29.277Z,100566.30
2018-11-22T04:09:56.131Z,100573.31
2018-11-22T04:12:22.973Z,100569.52
2018-11-22T04:14:49.808Z,100570.00
2018-11-22T04:17:16.644Z,100574.47
2018-11-22T04:19:43.484Z,100571.19
2018-11-22T04:22:10.324Z,100572.29
2018-11-22T04:24:37.165Z,100573.80
2018-11-22T04:27:04.318Z,100579.91
2018-11-22T04:29:31.152Z,100577.80
2018-11-22T04:31:57.988Z,100582.20
2018-11-22T04:34:24.816Z,100580.37
2018-11-22T04:36:51.657Z,100571.74
2018-11-22T04:39:18.503Z,100573.00
2018-11-22T04:41:45.416Z,100571.36
2018-11-22T04:44:12.275Z,100579.72
2018-11-22T04:46:39.114Z,100571.91
2018-11-22T04:49:05.940Z,100578.16
2018-11-22T04:51:32.771Z,100585.32
2018-11-22T04:53:59.755Z,100584.20
2018-11-22T04:56:26.596Z,100591.75
2018-11-22T04:58:53.571Z,100592.39
2018-11-22T05:01:20.413Z,100595.41
2018-11-22T05:03:47.240Z,100593.01
2018-11-22T05:06:14.088Z,100589.62
2018-11-22T05:08:40.921Z,100592.64
2018-11-22T05:11:07.777Z,100579.79
2018-11-22T05:13:34.610Z,100580.55
2018-11-22T05:16:01.449Z,100590.65
2018-11-22T05:18:28.285Z,100588.70
2018-11-22T05:20:55.128Z,100590.53
2018-11-22T05:23:22.051Z,100593.93
2018-11-22T05:25:48.867Z,100593.53
2018-11-22T05:28:15.703Z,100595.86
2018-11-22T05:30:42.560Z,100597.39
2018-11-22T05:33:09.401Z,100590.65
2018-11-22T05:35:36.225Z,100596.59
2018-11-22T05:38:03.072Z,100599.81
2018-11-22T05:40:30.788Z,100601.98
2018-11-22T05:42:57.097Z,100601.80
2018-11-22T05:45:25.269Z,100596.47
2018-11-22T05:47:52.101Z,100600.33
2018-11-22T05:50:20.493Z,100601.00
2018-11-22T05:52:47.735Z,100596.84
2018-11-22T05:55:15.104Z,100602.89
2018-11-22T05:57:41.940Z,100602.25
2018-11-22T06:00:12.559Z,100593.63
2018-11-22T06:02:39.412Z,100607.67
2018-11-22T06:05:06.891Z,100598.12
2018-11-22T06:07:33.765Z,100605.98
2018-11-22T06:10:00.684Z,100602.98
2018-11-22T06:12:27.553Z,100608.62
2018-11-22T06:14:54.423Z,100607.70
2018-11-22T06:17:21.276Z,100607.70
2018-11-22T06:19:48.148Z,100600.88
2018-11-22T06:22:15.021Z,100602.75
2018-11-22T06:24:41.887Z,100604.48
2018-11-22T06:27:08.760Z,100602.34
2018-11-22T06:29:35.599Z,100609.33
2018-11-22T06:32:02.457Z,100603.59
2018-11-22T06:34:29.365Z,100606.63
2018-11-22T06:36:56.237Z,100606.23
2018-11-22T06:39:23.112Z,100606.38
2018-11-22T06:41:49.992Z,100611.19
2018-11-22T06:44:16.853Z,100610.55
2018-11-22T06:46:43.737Z,100611.00
2018-11-22T06:49:10.605Z,100615.23
2018-11-22T06:51:37.493Z,100620.19
2018-11-22T06:54:04.688Z,100624.22
2018-11-22T06:56:31.535Z,100623.67
2018-11-22T06:58:58.402Z,100628.23
2018-11-22T07:01:25.259Z,100619.05
2018-11-22T07:03:52.124Z,100613.91
2018-11-22T07:06:19.076Z,100618.22
2018-11-22T07:08:45.976Z,100619.05
2018-11-22T07:11:12.830Z,100620.39
2018-11-22T07:13:39.699Z,100613.91
2018-11-22T07:16:06.560Z,100610.88
2018-11-22T07:18:33.428Z,100619.33
2018-11-22T07:21:00.300Z,100621.16
2018-11-22T07:23:27.164Z,100616.97
2018-11-22T07:25:54.078Z,100626.61
2018-11-22T07:28:20.939Z,100619.45
2018-11-22T07:30:47.809Z,100619.48
2018-11-22T07:33:14.685Z,100618.25
2018-11-22T07:35:41.562Z,100612.56
2018-11-22T07:38:08.940Z,100614.17
2018-11-22T07:40:35.984Z,100615.07
2018-11-22T07:43:03.280Z,100606.69
2018-11-22T07:45:32.017Z,100613.67
2018-11-22T07:47:59.889Z,100615.23
2018-11-22T07:50:26.758Z,100611.09
2018-11-22T07:52:56.039Z,100617.70
2018-11-22T07:55:21.136Z,100626.02
2018-11-22T07:57:48.024Z,100628.62
2018-11-22T08:00:18.424Z,100621.13
2018-11-22T08:02:46.265Z,100620.30
2018-11-22T08:05:13.795Z,100619.66
2018-11-22T08:07:41.319Z,100617.91
2018-11-22T08:10:09.781Z,100626.63
2018-11-22T08:12:36.699Z,100618.09
2018-11-22T08:15:04.109Z,100630.74
2018-11-22T08:17:30.975Z,100634.16
2018-11-22T08:19:57.809Z,100630.31
2018-11-22T08:22:24.710Z,100636.00
2018-11-22T08:24:51.502Z,100633.31
2018-11-22T08:27:18.444Z,100637.94
2018-11-22T08:29:45.308Z,100637.08
2018-11-22T08:32:12.157Z,100632.91
2018-11-22T08:34:39.065Z,100642.81
2018-11-22T08:37:05.950Z,100644.84
2018-11-22T08:39:32.825Z,100649.38
2018-11-22T08:41:59.684Z,100649.92
2018-11-22T08:44:26.612Z,100653.14
2018-11-22T08:46:53.484Z,100659.72
2018-11-22T08:49:20.363Z,100653.84
2018-11-22T08:51:47.232Z,100659.47
2018-11-22T08:54:14.181Z,100662.23
2018-11-22T08:56:41.038Z,100659.91
2018-11-22T08:59:07.941Z,100661.77
2018-11-22T09:01:34.834Z,100661.97
2018-11-22T09:04:01.733Z,100660.31
2018-11-22T09:06:28.609Z,100659.55
2018-11-22T09:08:55.720Z,100671.48
2018-11-22T09:11:22.589Z,100672.81
2018-11-22T09:13:49.452Z,100663.52
2018-11-22T09:16:16.327Z,100669.49
2018-11-22T09:18:43.184Z,100669.03
2018-11-22T09:21:10.067Z,100661.39
2018-11-22T09:23:38.525Z,100671.69
2018-11-22T09:26:04.082Z,100679.04
2018-11-22T09:28:30.964Z,100671.03
2018-11-22T09:30:57.845Z,100672.79
2018-11-22T09:33:24.714Z,100673.23
2018-11-22T09:35:51.583Z,100682.21
2018-11-22T09:38:18.462Z,100677.13
2018-11-22T09:40:45.338Z,100681.39
2018-11-22T09:43:12.208Z,100678.84
2018-11-22T09:45:39.897Z,100677.20
2018-11-22T09:48:06.764Z,100684.06
2018-11-22T09:50:33.627Z,100678.61
2018-11-22T09:53:01.765Z,100684.20
2018-11-22T09:55:29.209Z,100681.98
2018-11-22T09:57:56.073Z,100680.80
2018-11-22T10:00:23.322Z,100672.39
2018-11-22T10:02:50.233Z,100670.89
2018-11-22T10:05:18.524Z,100672.52
2018-11-22T10:07:45.339Z,100666.52
2018-11-22T10:10:13.847Z,100669.84
2018-11-22T10:12:40.739Z,100669.45
2018-11-22T10:15:09.166Z,100671.26
2018-11-22T10:17:36.155Z,100666.88
2018-11-22T10:20:03.324Z,100663.81
2018-11-22T10:22:30.294Z,100664.06
2018-11-22T10:24:57.250Z,100667.83
2018-11-22T10:27:24.115Z,100666.83
2018-11-22T10:29:51.006Z,100664.53
2018-11-22T10:32:17.878Z,100673.21
2018-11-22T10:34:44.755Z,100668.34
2018-11-22T10:37:11.631Z,100661.13
2018-11-22T10:39:38.508Z,100672.89
2018-11-22T10:42:05.877Z,100661.93
2018-11-22T10:44:32.757Z,100659.61
2018-11-22T10:46:59.647Z,100662.88
2018-11-22T10:49:26.524Z,100660.49
2018-11-22T10:51:53.400Z,100659.20
2018-11-22T10:54:20.280Z,100660.75
2018-11-22T10:56:47.180Z,100654.76
2018-11-22T10:59:14.073Z,100655.13
2018-11-22T11:01:46.655Z,100654.41
2018-11-22T11:04:19.307Z,100659.27
2018-11-22T11:06:50.783Z,100660.58
2018-11-22T11:09:17.752Z,100661.23
2018-11-22T11:11:44.616Z,100664.11
2018-11-22T11:14:11.472Z,100659.92
2018-11-22T11:16:38.329Z,100656.07
2018-11-22T11:19:05.280Z,100654.31
2018-11-22T11:21:32.109Z,100653.05
2018-11-22T11:23:58.991Z,100658.44
2018-11-22T11:26:25.889Z,100654.97
2018-11-22T11:28:52.732Z,100650.24
2018-11-22T11:31:19.572Z,100658.02
2018-11-22T11:33:46.414Z,100654.37
2018-11-22T11:36:17.824Z,100642.75
2018-11-22T11:38:40.199Z,100642.80
2018-11-22T11:41:07.055Z,100638.33
2018-11-22T11:43:33.960Z,100644.06
2018-11-22T11:46:00.811Z,100643.48
2018-11-22T11:48:27.698Z,100636.16
2018-11-22T11:50:54.584Z,100630.58
2018-11-22T11:53:25.164Z,100629.80
2018-11-22T11:55:48.356Z,100620.92
2018-11-22T11:58:15.236Z,100625.81
2018-11-22T12:00:43.471Z,100618.39
2018-11-22T12:03:10.399Z,100621.05
2018-11-22T12:05:37.297Z,100616.71
2018-11-22T12:08:04.268Z,100616.13
2018-11-22T12:10:31.131Z,100610.09
2018-11-22T12:12:58.000Z,100602.58
2018-11-22T12:15:25.131Z,100606.39
2018-11-22T12:17:51.969Z,100606.80
2018-11-22T12:20:19.115Z,100612.63
2018-11-22T12:22:50.179Z,100602.48
2018-11-22T12:25:18.439Z,100609.23
2018-11-22T12:27:46.507Z,100609.66
2018-11-22T12:30:15.696Z,100613.37
2018-11-22T12:32:58.008Z,100613.84
2018-11-22T12:35:30.588Z,100614.97
2018-11-22T12:38:03.152Z,100609.23
2018-11-22T12:40:30.182Z,100613.89
2018-11-22T12:42:57.080Z,100612.59
2018-11-22T12:45:24.423Z,100606.50
2018-11-22T12:47:51.379Z,100613.96
2018-11-22T12:50:18.319Z,100609.97
2018-11-22T12:52:45.172Z,100606.97
2018-11-22T12:55:12.051Z,100604.45
2018-11-22T12:57:38.903Z,100601.05
2018-11-22T13:00:11.243Z,100600.51
2018-11-22T13:02:38.288Z,100600.94
2018-11-22T13:05:06.603Z,100595.52
2018-11-22T13:07:33.488Z,100598.46
2018-11-22T13:10:00.384Z,100599.63
2018-11-22T13:12:27.231Z,100592.40
2018-11-22T13:14:54.095Z,100586.56
2018-11-22T13:17:20.936Z,100582.02
2018-11-22T13:19:47.804Z,100582.80
2018-11-22T13:22:14.664Z,100581.78
2018-11-22T13:24:41.530Z,100584.75
2018-11-22T13:27:08.380Z,100587.70
2018-11-22T13:29:35.204Z,100583.51
2018-11-22T13:32:02.053Z,100582.36
2018-11-22T13:34:28.933Z,100581.35
2018-11-22T13:36:55.776Z,100577.70
2018-11-22T13:39:22.603Z,100574.89
2018-11-22T13:41:49.575Z,100586.20
2018-11-22T13:44:16.482Z,100578.66
2018-11-22T13:46:43.355Z,100581.62
2018-11-22T13:49:10.260Z,100583.98
2018-11-22T13:51:37.157Z,100581.55
2018-11-22T13:54:04.375Z,100579.23
2018-11-22T13:56:31.239Z,100578.45
2018-11-22T13:58:58.075Z,100577.05
2018-11-22T14:01:24.931Z,100577.91
2018-11-22T14:03:51.782Z,100578.30
2018-11-22T14:06:18.802Z,100580.88
2018-11-22T14:08:45.647Z,100573.12
2018-11-22T14:11:14.060Z,100583.16
2018-11-22T14:13:39.444Z,100578.77
2018-11-22T14:16:06.291Z,100586.52
2018-11-22T14:18:33.144Z,100580.41
2018-11-22T14:20:59.988Z,100590.52
2018-11-22T14:23:26.831Z,100582.48
2018-11-22T14:25:53.818Z,100594.22
2018-11-22T14:28:20.656Z,100592.34
2018-11-22T14:30:48.381Z,100581.89
2018-11-22T14:33:15.501Z,100584.12
2018-11-22T14:35:42.430Z,100581.58
2018-11-22T14:38:09.505Z,100583.25
2018-11-22T14:40:36.912Z,100582.77
2018-11-22T14:43:03.935Z,100585.58
2018-11-22T14:45:31.579Z,100586.48
2018-11-22T14:47:59.844Z,100589.05
2018-11-22T14:50:29.431Z,100585.52
2018-11-22T14:53:01.533Z,100580.16
2018-11-22T14:55:28.416Z,100580.69
2018-11-22T14:57:55.305Z,100584.85
2018-11-22T15:00:22.184Z,100576.07
2018-11-22T15:02:49.060Z,100580.22
2018-11-22T15:05:16.255Z,100582.81
2018-11-22T15:07:43.601Z,100584.84
2018-11-22T15:10:14.741Z,100586.92
2018-11-22T15:12:42.721Z,100587.98
2018-11-22T15:15:12.649Z,100592.84
2018-11-22T15:17:39.895Z,100596.98
2018-11-22T15:20:08.257Z,100596.31
2018-11-22T15:22:35.147Z,100591.83
2018-11-22T15:25:02.091Z,100596.77
2018-11-22T15:27:28.966Z,100594.63
2018-11-22T15:29:55.843Z,100595.44
2018-11-22T15:32:22.721Z,100604.51
2018-11-22T15:34:49.643Z,100605.20
2018-11-22T15:37:16.521Z,100605.50
2018-11-22T15:39:43.379Z,100598.61
2018-11-22T15:42:10.256Z,100593.08
2018-11-22T15:44:37.141Z,100602.00
2018-11-22T15:47:04.564Z,100607.26
2018-11-22T15:49:31.447Z,100606.89
2018-11-22T15:51:58.316Z,100607.77
2018-11-22T15:54:25.245Z,100606.44
2018-11-22T15:56:52.135Z,100609.47
2018-11-22T15:59:19.036Z,100606.17
2018-11-22T16:01:46.043Z,100609.97
2018-11-22T16:04:12.924Z,100609.05
2018-11-22T16:06:39.788Z,100615.22
2018-11-22T16:09:07.969Z,100619.28
2018-11-22T16:11:34.847Z,100625.91
2018-11-22T16:14:01.722Z,100624.62
2018-11-22T16:16:28.604Z,100630.52
2018-11-22T16:18:55.472Z,100626.09
2018-11-22T16:21:22.380Z,100621.35
2018-11-22T16:23:49.256Z,100626.50
2018-11-22T16:26:16.140Z,100619.97
2018-11-22T16:28:43.041Z,100622.80
2018-11-22T16:31:09.948Z,100628.59
2018-11-22T16:33:36.825Z,100623.89
2018-11-22T16:36:03.770Z,100627.20
2018-11-22T16:38:30.628Z,100627.94
2018-11-22T16:40:57.562Z,100624.82
2018-11-22T16:43:24.412Z,100624.98
2018-11-22T16:45:51.308Z,100627.00
2018-11-22T16:48:18.207Z,100626.70
2018-11-22T16:50:45.152Z,100630.65
2018-11-22T16:53:12.012Z,100636.00
2018-11-22T16:55:38.868Z,100629.09
2018-11-22T16:58:06.239Z,100631.94
2018-11-22T17:00:35.357Z,100631.72
2018-11-22T17:03:04.638Z,100633.14
2018-11-22T17:05:31.900Z,100635.34
2018-11-22T17:07:59.551Z,100639.51
2018-11-22T17:10:27.550Z,100643.82
2018-11-22T17:12:55.605Z,100647.17
2018-11-22T17:15:24.189Z,100651.59
2018-11-22T17:17:51.554Z,100647.09
2018-11-22T17:20:19.407Z,100644.23
2018-11-22T17:22:47.064Z,100646.63
2018-11-22T17:25:16.389Z,100649.20
2018-11-22T17:27:44.040Z,100645.80
2018-11-22T17:30:13.211Z,100652.38
2018-11-22T17:32:40.531Z,100654.37
2018-11-22T17:35:08.868Z,100649.95
2018-11-22T17:37:35.731Z,100648.25
2018-11-22T17:40:03.096Z,100650.48
2018-11-22T17:42:29.945Z,100650.75
2018-11-22T17:44:56.917Z,100647.55
2018-11-22T17:47:23.803Z,100654.88
2018-11-22T17:49:50.680Z,100656.84
2018-11-22T17:52:17.535Z,100652.33
2018-11-22T17:54:44.384Z,100654.86
2018-11-22T17:57:11.267Z,100649.98
2018-11-22T17:59:38.207Z,100660.02
2018-11-22T18:02:05.299Z,100663.78
2018-11-22T18:04:32.184Z,100667.53
2018-11-22T18:06:59.069Z,100668.27
2018-11-22T18:09:25.949Z,100668.81
2018-11-22T18:11:52.856Z,100668.34
2018-11-22T18:14:19.703Z,100665.80
2018-11-22T18:16:46.618Z,100665.13
2018-11-22T18:19:13.534Z,100661.67
2018-11-22T18:21:40.387Z,100667.61
2018-11-22T18:24:07.223Z,100665.52
2018-11-22T18:26:34.095Z,100662.92
2018-11-22T18:29:00.932Z,100670.68
2018-11-22T18:31:27.783Z,100672.34
2018-11-22T18:33:54.707Z,100668.75
2018-11-22T18:36:21.599Z,100672.34
2018-11-22T18:38:48.456Z,100677.76
2018-11-22T18:41:15.309Z,100678.38
2018-11-22T18:43:42.204Z,100675.58
2018-11-22T18:46:09.060Z,100680.10
2018-11-22T18:48:35.921Z,100676.19
2018-11-22T18:51:02.761Z,100676.55
2018-11-22T18:53:29.596Z,100672.97
2018-11-22T18:55:56.448Z,100673.41
2018-11-22T18:58:23.275Z,100667.45
2018-11-22T19:00:50.121Z,100671.98
2018-11-22T19:03:18.191Z,100675.06
2018-11-22T19:05:45.070Z,100684.55
2018-11-22T19:08:11.966Z,100681.02
2018-11-22T19:10:39.903Z,100683.96
2018-11-22T19:13:07.756Z,100681.17
2018-11-22T19:15:36.147Z,100682.89
2018-11-22T19:18:03.438Z,100693.75
2018-11-22T19:20:32.040Z,100689.44
2018-11-22T19:22:59.847Z,100689.06
2018-11-22T19:25:26.747Z,100685.31
2018-11-22T19:27:55.339Z,100690.59
2018-11-22T19:30:23.559Z,100688.50
2018-11-22T19:32:51.406Z,100684.18
2018-11-22T19:35:19.601Z,100686.20
2018-11-22T19:37:46.790Z,100689.60
2018-11-22T19:40:15.991Z,100688.71
2018-11-22T19:42:44.004Z,100691.42
2018-11-22T19:45:12.484Z,100689.69
2018-11-22T19:47:39.470Z,100692.72
2018-11-22T19:50:08.951Z,100691.58
2018-11-22T19:52:35.831Z,100697.61
2018-11-22T19:55:02.765Z,100689.91
2018-11-22T19:57:29.719Z,100690.37
2018-11-22T19:59:56.555Z,100692.25
2018-11-22T20:02:23.399Z,100700.33
2018-11-22T20:04:50.243Z,100695.34
2018-11-22T20:07:17.103Z,100695.72
2018-11-22T20:09:43.963Z,100701.16
2018-11-22T20:12:10.815Z,100700.47
2018-11-22T20:14:37.709Z,100695.19
2018-11-22T20:17:04.624Z,100699.70
2018-11-22T20:19:31.471Z,100697.31
2018-11-22T20:21:58.331Z,100697.47
2018-11-22T20:24:25.243Z,100701.75
2018-11-22T20:26:52.096Z,100696.86
2018-11-22T20:29:18.982Z,100688.48
2018-11-22T20:31:46.412Z,100697.47
2018-11-22T20:34:12.739Z,100695.34
2018-11-22T20:36:39.667Z,100697.07
2018-11-22T20:39:08.440Z,100702.11
2018-11-22T20:41:35.284Z,100706.83
2018-11-22T20:44:02.120Z,100701.34
2018-11-22T20:46:28.959Z,100704.53
2018-11-22T20:48:55.795Z,100707.62
2018-11-22T20:51:22.635Z,100703.44
2018-11-22T20:53:49.484Z,100708.56
2018-11-22T20:56:16.332Z,100699.16
2018-11-22T20:58:43.168Z,100698.33
2018-11-22T21:01:10.003Z,100697.59
2018-11-22T21:03:36.839Z,100699.16
2018-11-22T21:06:04.163Z,100695.55
2018-11-22T21:08:31.051Z,100693.81
2018-11-22T21:10:57.967Z,100697.48
2018-11-22T21:13:24.825Z,100691.34
2018-11-22T21:15:51.666Z,100692.00
2018-11-22T21:18:18.507Z,100693.38
2018-11-22T21:20:45.343Z,100691.31
2018-11-22T21:23:12.187Z,100697.55
2018-11-22T21:25:39.092Z,100706.81
2018-11-22T21:28:06.137Z,100707.73
2018-11-22T21:30:34.303Z,100705.53
2018-11-22T21:33:01.639Z,100712.92
2018-11-22T21:35:28.609Z,100711.09
2018-11-22T21:37:56.359Z,100709.59
2018-11-22T21:40:23.871Z,100712.37
2018-11-22T21:42:50.745Z,100709.25
2018-11-22T21:45:19.031Z,100703.64
2018-11-22T21:47:45.903Z,100703.23
2018-11-22T21:50:13.866Z,100708.39
2018-11-22T21:52:40.724Z,100702.44
2018-11-22T21:55:09.298Z,100701.91
2018-11-22T21:57:37.019Z,100700.28
2018-11-22T22:00:05.760Z,100712.00
2018-11-22T22:02:32.620Z,100706.16
2018-11-22T22:04:59.473Z,100709.66
2018-11-22T22:07:26.327Z,100714.03
2018-11-22T22:09:53.691Z,100709.52
2018-11-22T22:12:20.535Z,100718.06
2018-11-22T22:14:47.374Z,100714.14
2018-11-22T22:17:14.211Z,100716.89
2018-11-22T22:19:41.064Z,100721.64
2018-11-22T22:22:07.908Z,100716.30
2018-11-22T22:24:34.727Z,100708.27
2018-11-22T22:27:01.583Z,100711.40
2018-11-22T22:29:28.429Z,100701.72
2018-11-22T22:31:55.487Z,100710.83
2018-11-22T22:34:22.331Z,100706.05
2018-11-22T22:36:49.168Z,100708.31
2018-11-22T22:39:16.000Z,100709.22
2018-11-22T22:41:42.877Z,100711.40
2018-11-22T22:44:09.743Z,100715.88
2018-11-22T22:46:36.627Z,100716.25
2018-11-22T22:49:03.515Z,100725.10
2018-11-22T22:51:30.347Z,100721.94
2018-11-22T22:53:57.211Z,100724.91
2018-11-22T22:56:24.054Z,100726.57
2018-11-22T22:58:50.903Z,100712.61
2018-11-22T23:01:17.751Z,100717.76
2018-11-22T23:03:44.584Z,100712.67
2018-11-22T23:06:11.408Z,100712.83
2018-11-22T23:08:38.258Z,100713.80
2018-11-22T23:11:05.093Z,100722.36
2018-11-22T23:13:31.939Z,100718.44
2018-11-22T23:15:58.792Z,100712.89
2018-11-22T23:18:25.634Z,100717.94
2018-11-22T23:20:52.479Z,100713.35
2018-11-22T23:23:19.329Z,100720.92
2018-11-22T23:25:46.165Z,100715.55
2018-11-22T23:28:12.999Z,100713.31
2018-11-22T23:30:39.839Z,100712.92
2018-11-22T23:33:07.771Z,100708.60
2018-11-22T23:35:34.668Z,100705.59
2018-11-22T23:38:01.539Z,100700.41
2018-11-22T23:40:29.536Z,100702.80
2018-11-22T23:42:56.387Z,100708.00
2018-11-22T23:45:24.756Z,100703.30
2018-11-22T23:47:51.607Z,100708.53
2018-11-22T23:50:19.664Z,100708.50
2018-11-22T23:52:47.649Z,100706.44
2018-11-22T23:55:14.545Z,100711.28
2018-11-22T23:57:41.423Z,100704.92
